createdAt,value
2022-09-07T00:02:06.750Z,19.19
2022-09-07T00:04:34.617Z,19.24
2022-09-07T00:07:02.675Z,19.59
2022-09-07T00:09:30.553Z,19.21
2022-09-07T00:11:59.322Z,19.44
2022-09-07T00:14:29.862Z,19.40
2022-09-07T00:17:02.954Z,19.28
2022-09-07T00:19:31.239Z,19.46
2022-09-07T00:21:59.171Z,19.46
2022-09-07T00:24:27.639Z,19.31
2022-09-07T00:26:56.733Z,19.33
2022-09-07T00:29:24.930Z,19.37
2022-09-07T00:31:55.048Z,19.36
2022-09-07T00:34:24.778Z,19.10
2022-09-07T00:36:53.493Z,19.51
2022-09-07T00:39:22.302Z,19.89
2022-09-07T00:41:50.944Z,20.45
2022-09-07T00:44:56.437Z,20.68
2022-09-07T00:47:28.622Z,20.45
2022-09-07T00:49:59.758Z,20.07
2022-09-07T00:52:28.846Z,19.93
2022-09-07T00:54:58.619Z,19.64
2022-09-07T00:57:28.280Z,19.58
2022-09-07T00:59:57.869Z,19.63
2022-09-07T01:02:30.053Z,19.46
2022-09-07T01:05:09.399Z,19.38
2022-09-07T01:07:37.970Z,19.28
2022-09-07T01:10:06.818Z,19.19
2022-09-07T01:12:34.466Z,19.10
2022-09-07T01:15:02.767Z,19.05
2022-09-07T01:17:42.685Z,19.00
2022-09-07T01:20:33.845Z,18.82
2022-09-07T01:23:25.482Z,18.87
2022-09-07T01:26:05.153Z,18.85
2022-09-07T01:28:37.958Z,18.88
2022-09-07T01:31:13.186Z,18.83
2022-09-07T01:33:51.457Z,18.75
2022-09-07T01:36:25.307Z,18.72
2022-09-07T01:38:56.102Z,18.62
2022-09-07T01:41:29.207Z,18.56
2022-09-07T01:44:02.988Z,18.42
2022-09-07T01:46:33.686Z,18.38
2022-09-07T01:49:06.326Z,18.09
2022-09-07T01:51:36.543Z,17.88
2022-09-07T01:54:09.202Z,17.93
2022-09-07T01:56:43.725Z,17.74
2022-09-07T01:59:18.326Z,17.69
2022-09-07T02:01:50.511Z,17.68
2022-09-07T02:04:22.031Z,17.65
2022-09-07T02:06:53.910Z,17.64
2022-09-07T02:09:29.133Z,17.71
2022-09-07T02:11:57.083Z,17.55
2022-09-07T02:14:32.551Z,17.50
2022-09-07T02:17:05.415Z,17.57
2022-09-07T02:19:35.357Z,17.46
2022-09-07T02:22:10.102Z,17.51
2022-09-07T02:24:41.328Z,17.43
2022-09-07T02:27:12.243Z,17.44
2022-09-07T02:29:44.510Z,17.46
2022-09-07T02:32:12.699Z,17.42
2022-09-07T02:34:41.510Z,17.38
2022-09-07T02:37:10.675Z,17.39
2022-09-07T02:39:39.172Z,17.40
2022-09-07T02:42:07.668Z,17.40
2022-09-07T02:44:38.919Z,17.39
2022-09-07T02:47:15.329Z,17.35
2022-09-07T02:49:57.563Z,17.36
2022-09-07T02:52:34.972Z,17.33
2022-09-07T02:55:11.726Z,17.37
2022-09-07T02:57:47.582Z,17.31
2022-09-07T03:00:18.106Z,17.29
2022-09-07T03:02:53.305Z,17.32
2022-09-07T03:05:24.333Z,17.38
2022-09-07T03:07:56.682Z,17.38
2022-09-07T03:10:25.505Z,17.35
2022-09-07T03:12:54.069Z,17.32
2022-09-07T03:15:24.010Z,17.28
2022-09-07T03:17:54.950Z,17.30
2022-09-07T03:20:24.500Z,17.26
2022-09-07T03:22:53.336Z,17.19
2022-09-07T03:25:23.223Z,17.21
2022-09-07T03:27:50.923Z,17.08
2022-09-07T03:30:18.719Z,17.00
2022-09-07T03:32:47.534Z,16.88
2022-09-07T03:35:17.952Z,16.84
2022-09-07T03:37:46.109Z,16.66
2022-09-07T03:40:15.981Z,16.80
2022-09-07T03:42:44.224Z,16.64
2022-09-07T03:45:12.405Z,16.58
2022-09-07T03:47:41.506Z,16.44
2022-09-07T03:50:10.489Z,16.25
2022-09-07T03:52:40.789Z,16.30
2022-09-07T03:55:09.495Z,16.18
2022-09-07T03:57:37.440Z,16.09
2022-09-07T04:00:06.433Z,15.99
2022-09-07T04:02:34.785Z,15.96
2022-09-07T04:05:03.215Z,15.96
2022-09-07T04:07:31.577Z,15.79
2022-09-07T04:10:01.024Z,16.00
2022-09-07T04:12:29.929Z,16.29
2022-09-07T04:14:58.495Z,16.42
2022-09-07T04:17:26.240Z,16.38
2022-09-07T04:19:54.469Z,16.50
2022-09-07T04:22:23.285Z,16.50
2022-09-07T04:24:51.537Z,16.38
2022-09-07T04:27:20.693Z,15.89
2022-09-07T04:29:50.159Z,15.97
2022-09-07T04:32:18.718Z,16.41
2022-09-07T04:34:47.623Z,16.51
2022-09-07T04:37:15.409Z,16.41
2022-09-07T04:39:43.253Z,16.17
2022-09-07T04:42:11.120Z,16.09
2022-09-07T04:44:43.318Z,16.14
2022-09-07T04:47:12.009Z,15.71
2022-09-07T04:49:41.131Z,15.77
2022-09-07T04:52:09.602Z,15.79
2022-09-07T04:54:41.632Z,15.75
2022-09-07T04:57:10.957Z,15.81
2022-09-07T04:59:40.226Z,15.76
2022-09-07T05:02:09.866Z,16.14
2022-09-07T05:04:38.645Z,16.30
2022-09-07T05:07:06.595Z,16.12
2022-09-07T05:09:35.370Z,16.17
2022-09-07T05:12:05.298Z,16.14
2022-09-07T05:14:35.080Z,16.16
2022-09-07T05:17:07.678Z,16.19
2022-09-07T05:19:35.320Z,16.09
2022-09-07T05:22:05.425Z,16.06
2022-09-07T05:24:36.856Z,16.01
2022-09-07T05:27:04.629Z,16.16
2022-09-07T05:32:21.628Z,16.08
2022-09-07T05:34:52.969Z,16.16
2022-09-07T05:37:20.956Z,16.23
2022-09-07T05:39:51.572Z,16.28
2022-09-07T05:42:20.134Z,16.37
2022-09-07T05:44:48.368Z,16.43
2022-09-07T05:47:16.291Z,16.36
2022-09-07T05:49:48.789Z,16.54
2022-09-07T05:52:16.848Z,16.58
2022-09-07T05:54:47.325Z,16.59
2022-09-07T05:57:15.366Z,16.45
2022-09-07T05:59:43.120Z,16.44
2022-09-07T06:02:12.320Z,16.49
2022-09-07T06:04:40.216Z,16.57
2022-09-07T06:07:21.554Z,16.63
2022-09-07T06:12:39.652Z,16.81
2022-09-07T06:15:09.515Z,16.80
2022-09-07T06:17:37.832Z,16.90
2022-09-07T06:20:07.889Z,16.95
2022-09-07T06:23:39.832Z,17.07
2022-09-07T06:26:09.967Z,17.20
2022-09-07T06:28:39.461Z,17.29
2022-09-07T06:31:08.726Z,17.43
2022-09-07T06:33:38.030Z,17.44
2022-09-07T06:36:08.123Z,17.55
2022-09-07T06:38:38.151Z,17.62
2022-09-07T06:43:59.634Z,17.79
2022-09-07T06:49:16.008Z,18.09
2022-09-07T06:51:44.461Z,18.31
2022-09-07T06:57:09.325Z,18.48
2022-09-07T06:59:37.706Z,18.73
2022-09-07T07:02:05.835Z,18.72
2022-09-07T07:04:39.357Z,18.63
2022-09-07T07:07:11.147Z,18.70
2022-09-07T07:09:39.401Z,18.64
2022-09-07T07:12:08.854Z,18.52
2022-09-07T07:14:39.604Z,18.42
2022-09-07T07:17:09.947Z,18.30
2022-09-07T07:19:38.314Z,18.45
2022-09-07T07:22:23.811Z,18.37
2022-09-07T07:24:57.127Z,18.43
2022-09-07T07:27:26.476Z,18.38
2022-09-07T07:29:54.861Z,18.45
2022-09-07T07:32:22.570Z,18.58
2022-09-07T07:34:50.465Z,18.50
2022-09-07T07:37:18.584Z,18.69
2022-09-07T07:42:36.229Z,18.90
2022-09-07T07:47:52.066Z,19.30
2022-09-07T07:50:35.278Z,19.47
2022-09-07T07:55:51.298Z,19.50
2022-09-07T07:58:21.460Z,19.52
2022-09-07T08:00:57.063Z,19.43
2022-09-07T08:03:26.817Z,19.52
2022-09-07T08:05:54.971Z,19.34
2022-09-07T08:08:24.137Z,19.50
2022-09-07T08:10:52.421Z,19.50
2022-09-07T08:13:22.684Z,19.59
2022-09-07T08:15:50.801Z,19.60
2022-09-07T08:18:18.957Z,19.81
2022-09-07T08:20:47.017Z,19.42
2022-09-07T08:23:15.336Z,19.63
2022-09-07T08:25:51.027Z,19.79
2022-09-07T08:28:18.828Z,20.19
2022-09-07T08:30:48.202Z,20.18
2022-09-07T08:33:16.532Z,20.33
2022-09-07T08:35:44.693Z,20.27
2022-09-07T08:38:12.769Z,20.62
2022-09-07T08:40:40.888Z,20.45
2022-09-07T08:43:13.983Z,20.36
2022-09-07T08:45:45.245Z,20.69
2022-09-07T08:48:18.926Z,20.64
2022-09-07T08:50:53.208Z,20.50
2022-09-07T08:53:21.440Z,20.68
2022-09-07T08:55:52.833Z,20.41
2022-09-07T08:58:47.720Z,20.81
2022-09-07T09:04:19.350Z,21.26
2022-09-07T09:06:55.747Z,21.44
2022-09-07T09:09:32.452Z,21.25
2022-09-07T09:12:09.419Z,20.74
2022-09-07T09:14:49.236Z,21.05
2022-09-07T09:17:24.883Z,20.29
2022-09-07T09:20:00.411Z,21.05
2022-09-07T09:22:28.540Z,20.87
2022-09-07T09:25:01.680Z,21.63
2022-09-07T09:27:29.721Z,21.89
2022-09-07T09:29:57.727Z,22.08
2022-09-07T09:32:37.841Z,22.19
2022-09-07T09:35:14.018Z,22.49
2022-09-07T09:37:46.971Z,22.94
2022-09-07T09:40:24.219Z,22.18
2022-09-07T09:43:03.580Z,22.49
2022-09-07T09:46:12.266Z,22.51
2022-09-07T09:48:33.462Z,22.16
2022-09-07T09:53:56.504Z,22.43
2022-09-07T09:56:37.286Z,21.80
2022-09-07T10:05:28.955Z,21.70
2022-09-07T10:07:59.077Z,21.81
2022-09-07T10:10:28.053Z,21.70
2022-09-07T10:12:56.916Z,21.51
2022-09-07T10:15:28.084Z,21.15
2022-09-07T10:17:55.756Z,20.85
2022-09-07T10:20:36.116Z,21.07
2022-09-07T10:23:07.225Z,20.60
2022-09-07T10:25:37.482Z,21.14
2022-09-07T10:28:17.690Z,21.31
2022-09-07T10:30:56.675Z,20.94
2022-09-07T10:33:28.798Z,20.99
2022-09-07T10:36:01.392Z,21.21
2022-09-07T10:38:38.404Z,21.31
2022-09-07T10:41:08.505Z,21.68
2022-09-07T10:43:43.558Z,21.61
2022-09-07T10:49:27.390Z,22.05
2022-09-07T10:52:03.426Z,22.01
2022-09-07T10:54:39.307Z,21.90
2022-09-07T10:57:28.390Z,21.59
2022-09-07T11:00:08.749Z,21.28
2022-09-07T11:05:55.167Z,21.40
2022-09-07T11:09:15.045Z,21.30
2022-09-07T11:14:17.536Z,21.07
2022-09-07T11:16:51.920Z,21.42
2022-09-07T11:19:37.746Z,20.94
2022-09-07T11:22:14.516Z,20.74
2022-09-07T11:27:49.040Z,20.94
2022-09-07T11:30:23.814Z,20.63
2022-09-07T11:32:59.884Z,20.52
2022-09-07T11:35:42.832Z,20.53
2022-09-07T11:38:26.663Z,20.90
2022-09-07T11:41:14.727Z,21.34
2022-09-07T11:43:47.488Z,21.00
2022-09-07T11:46:18.042Z,20.85
2022-09-07T11:48:48.696Z,20.96
2022-09-07T11:51:21.907Z,21.07
2022-09-07T11:53:53.510Z,21.44
2022-09-07T11:56:25.682Z,21.41
2022-09-07T11:59:06.691Z,21.73
2022-09-07T12:01:42.176Z,22.05
2022-09-07T12:04:26.147Z,22.41
2022-09-07T12:07:21.352Z,23.29
2022-09-07T12:10:17.014Z,22.98
2022-09-07T12:13:06.379Z,23.33
2022-09-07T12:15:42.967Z,24.24
2022-09-07T12:18:22.282Z,23.48
2022-09-07T12:20:50.788Z,24.08
2022-09-07T12:23:33.757Z,24.17
2022-09-07T12:26:49.492Z,23.62
2022-09-07T12:29:23.159Z,24.29
2022-09-07T12:31:58.647Z,23.76
2022-09-07T12:34:54.820Z,23.96
2022-09-07T12:37:42.666Z,23.65
2022-09-07T12:40:59.615Z,23.28
2022-09-07T12:43:50.002Z,23.76
2022-09-07T12:46:42.660Z,23.59
2022-09-07T12:49:19.835Z,22.98
2022-09-07T12:52:13.938Z,23.64
2022-09-07T12:54:59.682Z,24.36
2022-09-07T12:57:40.476Z,24.04
2022-09-07T13:00:16.319Z,24.93
2022-09-07T13:03:49.359Z,24.40
2022-09-07T13:06:04.364Z,24.97
2022-09-07T13:08:55.210Z,25.26
2022-09-07T13:11:35.638Z,25.27
2022-09-07T13:14:08.541Z,25.33
2022-09-07T13:20:13.416Z,24.39
2022-09-07T13:23:09.395Z,24.50
2022-09-07T13:25:48.665Z,25.10
2022-09-07T13:28:25.014Z,25.66
2022-09-07T13:31:02.078Z,26.54
2022-09-07T13:33:51.014Z,26.68
2022-09-07T13:36:40.228Z,26.84
2022-09-07T13:39:14.597Z,26.18
2022-09-07T13:41:45.067Z,25.42
2022-09-07T13:44:26.162Z,26.24
2022-09-07T13:47:20.248Z,25.76
2022-09-07T13:50:05.379Z,26.20
2022-09-07T13:52:45.014Z,26.60
2022-09-07T13:55:27.671Z,26.28
2022-09-07T13:58:07.895Z,27.21
2022-09-07T14:00:36.111Z,26.68
2022-09-07T14:03:06.681Z,26.53
2022-09-07T14:05:37.212Z,27.48
2022-09-07T14:08:06.163Z,27.88
2022-09-07T14:10:36.843Z,28.46
2022-09-07T14:13:09.006Z,28.49
2022-09-07T14:15:40.596Z,28.26
2022-09-07T14:18:13.358Z,29.65
2022-09-07T14:20:43.377Z,28.91
2022-09-07T14:23:22.012Z,27.98
2022-09-07T14:26:16.936Z,26.85
2022-09-07T14:28:46.908Z,27.92
2022-09-07T14:31:17.311Z,28.45
2022-09-07T14:33:53.636Z,27.69
2022-09-07T14:36:44.223Z,28.57
2022-09-07T14:39:15.062Z,29.04
2022-09-07T14:41:46.963Z,29.40
2022-09-07T14:44:28.840Z,30.04
2022-09-07T14:46:57.492Z,30.77
2022-09-07T14:49:25.605Z,30.17
2022-09-07T14:51:54.181Z,28.68
2022-09-07T14:54:22.816Z,28.96
2022-09-07T14:57:07.855Z,29.30
2022-09-07T14:59:41.343Z,29.84
2022-09-07T15:02:35.647Z,28.22
2022-09-07T15:05:34.382Z,28.36
2022-09-07T15:08:03.523Z,26.66
2022-09-07T15:10:41.608Z,26.32
2022-09-07T15:13:29.216Z,26.45
2022-09-07T15:16:03.331Z,26.81
2022-09-07T15:18:55.696Z,28.34
2022-09-07T15:21:27.324Z,27.29
2022-09-07T15:23:58.495Z,26.57
2022-09-07T15:29:21.569Z,26.80
2022-09-07T15:32:02.256Z,27.28
2022-09-07T15:34:32.217Z,27.47
2022-09-07T15:37:01.395Z,25.98
2022-09-07T15:39:31.336Z,26.20
2022-09-07T15:42:58.898Z,27.18
2022-09-07T15:44:50.362Z,28.33
2022-09-07T15:50:07.839Z,26.87
2022-09-07T15:52:35.579Z,26.29
2022-09-07T15:55:03.279Z,25.72
2022-09-07T15:57:50.163Z,26.28
2022-09-07T16:00:21.417Z,25.39
2022-09-07T16:03:06.272Z,25.25
2022-09-07T16:05:35.722Z,25.92
2022-09-07T16:10:54.256Z,24.72
2022-09-07T16:13:24.389Z,24.75
2022-09-07T16:15:54.052Z,24.49
2022-09-07T16:18:22.060Z,23.98
2022-09-07T16:20:52.721Z,23.88
2022-09-07T16:23:20.954Z,24.18
2022-09-07T16:26:07.483Z,24.05
2022-09-07T16:28:36.028Z,24.06
2022-09-07T16:31:08.902Z,24.22
2022-09-07T16:33:37.522Z,23.87
2022-09-07T16:36:07.582Z,23.98
2022-09-07T16:38:51.384Z,23.88
2022-09-07T16:41:21.223Z,24.01
2022-09-07T16:43:49.975Z,24.02
2022-09-07T16:46:20.185Z,24.41
2022-09-07T16:48:49.691Z,24.95
2022-09-07T16:51:20.661Z,24.91
2022-09-07T16:53:48.862Z,25.30
2022-09-07T16:56:17.754Z,25.41
2022-09-07T16:58:48.284Z,25.55
2022-09-07T17:01:17.825Z,25.62
2022-09-07T17:03:50.460Z,25.27
2022-09-07T17:06:20.427Z,24.82
2022-09-07T17:08:48.817Z,24.72
2022-09-07T17:11:18.123Z,24.56
2022-09-07T17:13:46.453Z,23.78
2022-09-07T17:16:16.685Z,24.10
2022-09-07T17:21:35.343Z,23.35
2022-09-07T17:24:04.554Z,23.26
2022-09-07T17:26:33.523Z,22.46
2022-09-07T17:29:01.605Z,22.47
2022-09-07T17:34:21.557Z,21.82
2022-09-07T17:36:51.505Z,21.46
2022-09-07T17:39:19.887Z,21.07
2022-09-07T17:41:48.396Z,21.20
2022-09-07T17:44:16.536Z,20.92
2022-09-07T17:46:44.409Z,20.90
2022-09-07T17:49:14.701Z,20.58
2022-09-07T17:51:42.631Z,20.56
2022-09-07T17:54:13.260Z,20.19
2022-09-07T17:56:41.949Z,20.36
2022-09-07T18:01:58.243Z,19.78
2022-09-07T18:04:27.182Z,20.12
2022-09-07T18:06:55.804Z,19.55
2022-09-07T18:09:25.045Z,19.45
2022-09-07T18:11:52.812Z,19.20
2022-09-07T18:14:21.096Z,19.01
2022-09-07T18:16:50.286Z,19.09
2022-09-07T18:20:19.862Z,19.32
2022-09-07T18:22:48.339Z,18.69
2022-09-07T18:25:19.789Z,18.49
2022-09-07T18:29:03.047Z,18.47
2022-09-07T18:30:38.300Z,18.27
2022-09-07T18:33:06.596Z,18.27
2022-09-07T18:35:34.346Z,17.97
2022-09-07T18:38:02.179Z,18.10
2022-09-07T18:40:33.404Z,18.37
2022-09-07T18:43:04.779Z,18.62
2022-09-07T18:45:32.546Z,18.52
2022-09-07T18:48:00.999Z,18.00
2022-09-07T18:50:28.726Z,17.82
2022-09-07T18:53:01.619Z,18.01
2022-09-07T18:55:43.655Z,18.13
2022-09-07T18:58:12.244Z,18.17
2022-09-07T19:00:45.029Z,18.04
2022-09-07T19:03:13.061Z,17.90
2022-09-07T19:05:55.934Z,17.92
2022-09-07T19:08:23.703Z,17.85
2022-09-07T19:10:52.973Z,17.29
2022-09-07T19:13:21.380Z,16.99
2022-09-07T19:15:48.996Z,17.15
2022-09-07T19:18:17.943Z,17.56
2022-09-07T19:20:45.570Z,17.02
2022-09-07T19:23:13.486Z,16.97
2022-09-07T19:25:42.149Z,17.11
2022-09-07T19:28:11.231Z,17.15
2022-09-07T19:30:38.818Z,17.08
2022-09-07T19:33:10.418Z,17.12
2022-09-07T19:35:37.987Z,17.17
2022-09-07T19:38:05.730Z,17.17
2022-09-07T19:40:33.334Z,17.02
2022-09-07T19:43:02.905Z,17.01
2022-09-07T19:45:32.183Z,17.04
2022-09-07T19:47:59.774Z,16.80
2022-09-07T19:50:27.906Z,16.86
2022-09-07T19:52:56.678Z,17.02
2022-09-07T19:55:25.602Z,16.83
2022-09-07T19:57:53.807Z,16.79
2022-09-07T20:00:22.575Z,16.70
2022-09-07T20:02:52.239Z,16.83
2022-09-07T20:05:20.051Z,16.90
2022-09-07T20:07:47.667Z,16.85
2022-09-07T20:10:15.645Z,16.73
2022-09-07T20:12:43.263Z,16.64
2022-09-07T20:15:11.430Z,16.62
2022-09-07T20:17:39.581Z,16.66
2022-09-07T20:20:10.742Z,16.74
2022-09-07T20:22:39.089Z,16.90
2022-09-07T20:25:12.545Z,16.94
2022-09-07T20:27:41.621Z,16.82
2022-09-07T20:30:10.398Z,16.47
2022-09-07T20:32:37.947Z,16.61
2022-09-07T20:35:06.328Z,16.52
2022-09-07T20:37:35.879Z,16.83
2022-09-07T20:40:04.306Z,16.79
2022-09-07T20:42:32.239Z,16.74
2022-09-07T20:44:59.806Z,16.64
2022-09-07T20:47:28.468Z,16.49
2022-09-07T20:49:56.214Z,16.46
2022-09-07T20:52:24.398Z,16.41
2022-09-07T20:54:53.554Z,16.37
2022-09-07T20:57:21.202Z,16.60
2022-09-07T20:59:49.148Z,16.61
2022-09-07T21:02:17.216Z,16.30
2022-09-07T21:04:46.042Z,16.40
2022-09-07T21:07:13.792Z,16.42
2022-09-07T21:09:42.330Z,16.22
2022-09-07T21:12:11.242Z,16.40
2022-09-07T21:14:38.859Z,16.33
2022-09-07T21:17:06.668Z,16.37
2022-09-07T21:19:34.346Z,16.36
2022-09-07T21:22:01.922Z,16.14
2022-09-07T21:24:29.615Z,16.14
2022-09-07T21:26:57.242Z,16.15
2022-09-07T21:29:28.178Z,16.08
2022-09-07T21:31:56.166Z,16.13
2022-09-07T21:34:24.511Z,16.17
2022-09-07T21:36:52.935Z,16.04
2022-09-07T21:39:21.903Z,15.97
2022-09-07T21:41:50.126Z,16.02
2022-09-07T21:44:17.871Z,16.06
2022-09-07T21:46:47.731Z,15.86
2022-09-07T21:49:15.694Z,15.91
2022-09-07T21:51:43.322Z,15.68
2022-09-07T21:54:10.955Z,15.81
2022-09-07T21:56:41.079Z,15.79
2022-09-07T21:59:12.345Z,15.70
2022-09-07T22:01:40.780Z,15.70
2022-09-07T22:04:09.948Z,15.44
2022-09-07T22:06:37.737Z,15.47
2022-09-07T22:09:06.082Z,15.70
2022-09-07T22:11:34.374Z,15.58
2022-09-07T22:14:03.885Z,15.42
2022-09-07T22:16:32.535Z,15.62
2022-09-07T22:19:00.453Z,15.32
2022-09-07T22:21:30.377Z,15.22
2022-09-07T22:23:59.139Z,15.07
2022-09-07T22:26:29.774Z,15.28
2022-09-07T22:28:58.778Z,15.39
2022-09-07T22:31:28.483Z,15.42
2022-09-07T22:33:57.292Z,15.27
2022-09-07T22:36:27.968Z,15.20
2022-09-07T22:38:58.011Z,14.97
2022-09-07T22:41:28.192Z,15.18
2022-09-07T22:43:56.063Z,15.50
2022-09-07T22:46:25.580Z,15.14
2022-09-07T22:48:54.383Z,15.15
2022-09-07T22:51:22.434Z,15.37
2022-09-07T22:53:50.141Z,15.05
2022-09-07T22:56:21.311Z,15.03
2022-09-07T22:58:50.647Z,15.12
2022-09-07T23:01:18.523Z,15.30
2022-09-07T23:03:46.733Z,15.22
2022-09-07T23:06:25.169Z,15.11
2022-09-07T23:08:54.210Z,14.89
2022-09-07T23:11:24.280Z,14.98
2022-09-07T23:13:53.144Z,15.18
2022-09-07T23:16:21.962Z,15.16
2022-09-07T23:18:49.918Z,15.25
2022-09-07T23:21:18.006Z,15.24
2022-09-07T23:23:50.148Z,15.08
2022-09-07T23:26:17.926Z,15.17
2022-09-07T23:28:52.335Z,15.14
2022-09-07T23:31:20.098Z,15.17
2022-09-07T23:33:47.962Z,15.07
2022-09-07T23:36:16.547Z,15.17
2022-09-07T23:38:44.337Z,15.27
2022-09-07T23:41:13.923Z,15.12
2022-09-07T23:43:42.782Z,15.23
2022-09-07T23:46:13.175Z,15.11
2022-09-07T23:48:40.912Z,15.15
2022-09-07T23:51:09.078Z,15.03
2022-09-07T23:53:36.784Z,15.07
2022-09-07T23:56:05.216Z,14.98
2022-09-07T23:58:33.059Z,15.03
